CheckWX is a tool to help pilots better visualize weather data.  It is not intended as a substitute for an official pre-flight weather briefing.

06:30:28 UTC

KNSE METAR
Whiting Field NAS North Airport
Milton, Florida, USA
Current

34 mins ago

KNSE 050556Z AUTO 33005KT 10SM OVC110 18/15 A2994 RMK AO2 SLP123 T01830150 10222 20167 402670100 58004 $
Observed
Apr-5 @ 05:56 UTC
Wind
  • 330° at 5 KTS
Visibility
Flight Rules
VFR
Cloud Levels
  • Overcast at 11,000' AGL
Dewpoint
15°C / 59°F
Humidity
83%
Altimeter
29.94" Hg
Pressure
1013.92 hPa
Previous

2 hours ago

KNSE 050456Z AUTO 32004KT 10SM BKN110 17/16 A2994 RMK AO2 SLP123 T01720156 $
Observed
Apr-5 @ 04:56 UTC
Wind
  • 320° at 4 KTS
Visibility
Flight Rules
VFR
Cloud Levels
  • Broken at 11,000' AGL
Temperature
17°C / 63°F
Dewpoint
16°C / 61°F
Humidity
94%
Altimeter
29.94" Hg
Pressure
1013.92 hPa
Previous

7 hours ago

KNSE 042356Z AUTO 29003KT 10SM CLR 22/13 A2994 RMK AO2 SLP124 T02220133 10261 20222 53005 $
Observed
Apr-4 @ 23:56 UTC
Wind
  • 290° at 3 KTS
Visibility
Flight Rules
VFR
Cloud Levels
  • Clear skies
Temperature
22°C / 72°F
Dewpoint
13°C / 55°F
Humidity
57%
Altimeter
29.94" Hg
Pressure
1013.92 hPa